createdAt,value
2023-02-15T00:02:08.737Z,99190.91
2023-02-15T00:04:48.837Z,99170.59
2023-02-15T00:07:20.320Z,99190.34
2023-02-15T00:09:48.859Z,99188.47
2023-02-15T00:12:17.471Z,99183.25
2023-02-15T00:14:45.622Z,99179.97
2023-02-15T00:17:13.796Z,99162.59
2023-02-15T00:19:42.268Z,99192.66
2023-02-15T00:22:10.986Z,99189.88
2023-02-15T00:24:40.491Z,99192.56
2023-02-15T00:27:10.330Z,99191.69
2023-02-15T00:29:38.595Z,99170.13
2023-02-15T00:32:07.170Z,99190.19
2023-02-15T00:34:35.347Z,99188.69
2023-02-15T00:37:03.572Z,99186.72
2023-02-15T00:39:31.679Z,99186.72
2023-02-15T00:42:01.243Z,99191.25
2023-02-15T00:44:29.385Z,99193.06
2023-02-15T00:46:57.482Z,99193.75
2023-02-15T00:49:25.697Z,99167.34
2023-02-15T00:51:53.821Z,99194.25
2023-02-15T00:54:22.292Z,99188.28
2023-02-15T00:56:51.119Z,99184.22
2023-02-15T00:59:20.597Z,99126.31
2023-02-15T01:01:48.710Z,99175.56
2023-02-15T01:04:16.779Z,99173.94
2023-02-15T01:06:44.842Z,99172.38
2023-02-15T01:09:14.691Z,99164.03
2023-02-15T01:11:42.942Z,99165.84
2023-02-15T01:14:11.058Z,99153.34
2023-02-15T01:16:40.582Z,99169.00
2023-02-15T01:19:08.692Z,99141.03
2023-02-15T01:21:36.916Z,99151.69
2023-02-15T01:24:05.405Z,99156.19
2023-02-15T01:26:33.448Z,99156.34
2023-02-15T01:29:01.590Z,99160.66
2023-02-15T01:31:29.822Z,99151.97
2023-02-15T01:33:59.519Z,99151.97
2023-02-15T01:36:27.679Z,99147.75
2023-02-15T01:38:55.845Z,99102.25
2023-02-15T01:41:25.093Z,99103.94
2023-02-15T01:43:56.085Z,99141.78
2023-02-15T01:46:29.801Z,99131.41
2023-02-15T01:49:04.482Z,99081.03
2023-02-15T01:51:35.359Z,99129.66
2023-02-15T01:54:08.121Z,99105.09
2023-02-15T01:56:40.205Z,99107.78
2023-02-15T01:59:14.025Z,99115.06
2023-02-15T02:01:42.360Z,99120.09
2023-02-15T02:04:17.566Z,99117.50
2023-02-15T02:06:48.905Z,99111.47
2023-02-15T02:09:17.382Z,99084.75
2023-02-15T02:11:48.464Z,99103.16
2023-02-15T02:14:17.763Z,99086.59
2023-02-15T02:16:55.081Z,99073.41
2023-02-15T02:19:53.547Z,99098.53
2023-02-15T02:22:56.643Z,99091.72
2023-02-15T02:25:46.636Z,99088.25
2023-02-15T02:28:35.542Z,99096.78
2023-02-15T02:31:28.046Z,99094.94
2023-02-15T02:34:04.008Z,99086.34
2023-02-15T02:36:42.644Z,99073.72
2023-02-15T02:39:26.033Z,99071.84
2023-02-15T02:42:02.519Z,99068.38
2023-02-15T02:44:37.281Z,99092.72
2023-02-15T02:47:12.216Z,99092.72
2023-02-15T02:49:44.344Z,99082.31
2023-02-15T02:52:50.678Z,99080.53
2023-02-15T02:55:29.957Z,99086.06
2023-02-15T02:58:02.802Z,98936.44
2023-02-15T03:00:35.308Z,99077.69
2023-02-15T03:03:08.770Z,99024.09
2023-02-15T03:05:43.123Z,98996.78
2023-02-15T03:08:11.990Z,99070.69
2023-02-15T03:10:42.459Z,99039.91
2023-02-15T03:13:11.613Z,99074.78
2023-02-15T03:16:00.838Z,99069.53
2023-02-15T03:18:34.487Z,99068.66
2023-02-15T03:21:06.427Z,99071.22
2023-02-15T03:23:35.869Z,99070.41
2023-02-15T03:26:08.170Z,99076.50
2023-02-15T03:28:40.463Z,99017.88
2023-02-15T03:31:10.913Z,99076.63
2023-02-15T03:33:44.709Z,99079.22
2023-02-15T03:36:20.973Z,99013.53
2023-02-15T03:38:55.453Z,99074.78
2023-02-15T03:41:28.778Z,99073.97
2023-02-15T03:44:01.059Z,99077.59
2023-02-15T03:46:35.287Z,99072.63
2023-02-15T03:49:09.517Z,99067.53
2023-02-15T03:51:42.394Z,99069.91
2023-02-15T03:54:12.185Z,98972.53
2023-02-15T03:56:42.829Z,99129.28
2023-02-15T03:59:28.743Z,99049.50
2023-02-15T04:02:07.818Z,99012.81
2023-02-15T04:04:38.341Z,99037.50
2023-02-15T04:07:09.869Z,99068.88
2023-02-15T04:09:55.317Z,99068.84
2023-02-15T04:12:23.388Z,99069.84
2023-02-15T04:15:08.920Z,99059.47
2023-02-15T04:17:38.824Z,99028.38
2023-02-15T04:20:25.661Z,98902.41
2023-02-15T04:23:12.278Z,99064.66
2023-02-15T04:25:40.920Z,99073.28
2023-02-15T04:28:09.351Z,99056.00
2023-02-15T04:30:37.592Z,99061.03
2023-02-15T04:33:05.743Z,99067.06
2023-02-15T04:35:34.641Z,99070.63
2023-02-15T04:38:04.236Z,99065.44
2023-02-15T04:40:32.479Z,99063.66
2023-02-15T04:43:00.638Z,99060.25
2023-02-15T04:45:29.329Z,99066.41
2023-02-15T04:47:57.724Z,99060.50
2023-02-15T04:50:25.899Z,99057.88
2023-02-15T04:52:54.092Z,99057.06
2023-02-15T04:55:23.669Z,99032.53
2023-02-15T04:57:51.808Z,99051.94
2023-02-15T05:00:20.703Z,99042.50
2023-02-15T05:02:48.894Z,99026.81
2023-02-15T05:05:17.410Z,99043.47
2023-02-15T05:07:45.485Z,99031.19
2023-02-15T05:10:13.594Z,99022.41
2023-02-15T05:12:43.139Z,99029.25
2023-02-15T05:15:12.084Z,99048.34
2023-02-15T05:17:40.525Z,99046.66
2023-02-15T05:20:09.450Z,99027.50
2023-02-15T05:22:37.854Z,99045.03
2023-02-15T05:25:23.564Z,99045.84
2023-02-15T05:28:10.543Z,99044.13
2023-02-15T05:30:40.825Z,99045.88
2023-02-15T05:33:09.498Z,99046.03
2023-02-15T05:35:38.002Z,99039.97
2023-02-15T05:38:06.144Z,99041.88
2023-02-15T05:40:34.270Z,99039.28
2023-02-15T05:43:03.790Z,99039.84
2023-02-15T05:45:32.127Z,99025.66
2023-02-15T05:48:00.382Z,99047.38
2023-02-15T05:50:28.927Z,99042.13
2023-02-15T05:52:57.739Z,99043.97
2023-02-15T05:55:25.880Z,99047.41
2023-02-15T05:57:54.050Z,99032.47
2023-02-15T06:00:24.370Z,99044.84
2023-02-15T06:02:52.504Z,99046.97
2023-02-15T06:05:20.773Z,99049.44
2023-02-15T06:07:48.962Z,99053.34
2023-02-15T06:10:17.580Z,99048.78
2023-02-15T06:12:46.382Z,98950.16
2023-02-15T06:15:15.103Z,99063.19
2023-02-15T06:17:45.069Z,99068.41
2023-02-15T06:20:14.294Z,99059.75
2023-02-15T06:22:42.515Z,99074.03
2023-02-15T06:25:12.331Z,99071.28
2023-02-15T06:27:43.475Z,99071.09
2023-02-15T06:30:13.210Z,99070.16
2023-02-15T06:32:41.736Z,99046.44
2023-02-15T06:35:11.506Z,99076.16
2023-02-15T06:37:40.822Z,99078.69
2023-02-15T06:40:10.393Z,99076.16
2023-02-15T06:42:38.698Z,99078.84
2023-02-15T06:45:08.486Z,99085.78
2023-02-15T06:47:37.144Z,99085.84
2023-02-15T06:50:06.166Z,99040.13
2023-02-15T06:52:36.317Z,99089.22
2023-02-15T06:55:05.067Z,99089.25
2023-02-15T06:57:34.257Z,99080.50
2023-02-15T07:00:02.421Z,99070.13
2023-02-15T07:02:30.645Z,99053.44
2023-02-15T07:04:59.012Z,99084.19
2023-02-15T07:07:27.360Z,99077.34
2023-02-15T07:09:57.006Z,99054.91
2023-02-15T07:12:42.440Z,99080.63
2023-02-15T07:15:11.488Z,99073.81
2023-02-15T07:17:39.861Z,99050.94
2023-02-15T07:20:11.339Z,99045.78
2023-02-15T07:22:40.014Z,99083.25
2023-02-15T07:25:11.795Z,99043.19
2023-02-15T07:27:40.473Z,99057.91
2023-02-15T07:30:10.980Z,99068.69
2023-02-15T07:32:59.639Z,99077.34
2023-02-15T07:35:28.482Z,99067.72
2023-02-15T07:37:56.770Z,99071.16
2023-02-15T07:40:26.558Z,99068.53
2023-02-15T07:42:55.948Z,99069.41
2023-02-15T07:45:24.674Z,99024.75
2023-02-15T07:47:52.900Z,99053.91
2023-02-15T07:50:21.095Z,99040.94
2023-02-15T07:52:49.342Z,99063.66
2023-02-15T07:55:17.559Z,99059.47
2023-02-15T07:57:48.487Z,99000.91
2023-02-15T08:00:19.248Z,99063.88
2023-02-15T08:03:10.838Z,99036.19
2023-02-15T08:05:39.240Z,99061.13
2023-02-15T08:08:07.866Z,99058.53
2023-02-15T08:10:54.694Z,99052.41
2023-02-15T08:13:24.315Z,99054.09
2023-02-15T08:15:52.950Z,99020.81
2023-02-15T08:18:21.288Z,99021.06
2023-02-15T08:20:51.837Z,99029.19
2023-02-15T08:23:20.612Z,99060.69
2023-02-15T08:25:48.872Z,99050.34
2023-02-15T08:28:17.148Z,98962.28
2023-02-15T08:30:46.808Z,99031.78
2023-02-15T08:33:15.064Z,99059.97
2023-02-15T08:35:43.298Z,99058.34
2023-02-15T08:38:11.569Z,99040.09
2023-02-15T08:40:40.285Z,99055.09
2023-02-15T08:43:08.548Z,99057.00
2023-02-15T08:45:36.917Z,99050.72
2023-02-15T08:48:07.034Z,99052.28
2023-02-15T08:50:35.220Z,99049.59
2023-02-15T08:53:03.458Z,99041.66
2023-02-15T08:55:31.719Z,99043.41
2023-02-15T08:58:00.091Z,98937.75
2023-02-15T09:00:29.470Z,99042.84
2023-02-15T09:02:57.642Z,99027.22
2023-02-15T09:05:27.342Z,99047.38
2023-02-15T09:07:55.554Z,98916.13
2023-02-15T09:10:23.760Z,99019.47
2023-02-15T09:12:52.671Z,99102.06
2023-02-15T09:15:20.833Z,99041.56
2023-02-15T09:17:49.122Z,99050.31
2023-02-15T09:20:17.509Z,98966.22
2023-02-15T09:22:47.387Z,99052.16
2023-02-15T09:25:15.752Z,99018.28
2023-02-15T09:27:44.479Z,99027.84
2023-02-15T09:30:14.049Z,99045.78
2023-02-15T09:32:42.176Z,99040.38
2023-02-15T09:35:10.447Z,99042.00
2023-02-15T09:37:38.648Z,99044.53
2023-02-15T09:40:09.256Z,99041.81
2023-02-15T09:43:03.025Z,99038.94
2023-02-15T09:45:48.461Z,99043.16
2023-02-15T09:48:31.669Z,99024.19
2023-02-15T09:51:12.498Z,99045.53
2023-02-15T09:54:02.152Z,99045.00
2023-02-15T09:56:38.621Z,99036.50
2023-02-15T09:59:16.072Z,99047.72
2023-02-15T10:01:50.771Z,98983.22
2023-02-15T10:04:35.186Z,99039.31
2023-02-15T10:07:19.600Z,99030.84
2023-02-15T10:10:00.720Z,99039.56
2023-02-15T10:12:49.183Z,98989.78
2023-02-15T10:15:30.202Z,99034.47
2023-02-15T10:18:14.228Z,99016.25
2023-02-15T10:20:58.861Z,99025.25
2023-02-15T10:23:44.143Z,98994.63
2023-02-15T10:26:18.999Z,99022.59
2023-02-15T10:28:51.434Z,99022.75
2023-02-15T10:31:26.638Z,99022.03
2023-02-15T10:34:12.168Z,98995.91
2023-02-15T10:37:11.732Z,99011.81
2023-02-15T10:39:51.628Z,98983.78
2023-02-15T10:42:31.900Z,99008.44
2023-02-15T10:45:15.593Z,98982.16
2023-02-15T10:48:15.034Z,99000.53
2023-02-15T10:50:51.926Z,98999.63
2023-02-15T10:53:31.567Z,98989.88
2023-02-15T10:56:10.245Z,98996.59
2023-02-15T10:58:53.560Z,98986.19
2023-02-15T11:01:27.451Z,98982.72
2023-02-15T11:04:17.522Z,98974.06
2023-02-15T11:06:52.396Z,98977.66
2023-02-15T11:09:24.381Z,98969.97
2023-02-15T11:11:56.684Z,98976.28
2023-02-15T11:14:37.629Z,98966.19
2023-02-15T11:17:12.183Z,98963.84
2023-02-15T11:19:45.566Z,98937.00
2023-02-15T11:22:15.252Z,98955.44
2023-02-15T11:24:46.938Z,98931.25
2023-02-15T11:27:22.604Z,98777.81
2023-02-15T11:29:59.513Z,98946.94
2023-02-15T11:32:32.671Z,98943.22
2023-02-15T11:35:07.042Z,98947.63
2023-02-15T11:37:40.723Z,98899.81
2023-02-15T11:40:21.583Z,98935.69
2023-02-15T11:42:51.795Z,98925.94
2023-02-15T11:45:28.295Z,98923.41
2023-02-15T11:47:58.480Z,98927.09
2023-02-15T11:50:28.340Z,98915.94
2023-02-15T11:53:00.950Z,98918.63
2023-02-15T11:55:30.875Z,98883.03
2023-02-15T11:58:08.264Z,98912.03
2023-02-15T12:00:39.971Z,98910.41
2023-02-15T12:03:18.498Z,98897.78
2023-02-15T12:05:49.815Z,98875.13
2023-02-15T12:08:21.306Z,98887.38
2023-02-15T12:11:00.933Z,98867.25
2023-02-15T12:13:29.236Z,98870.03
2023-02-15T12:16:01.394Z,98886.81
2023-02-15T12:18:42.564Z,98856.53
2023-02-15T12:21:14.629Z,98876.66
2023-02-15T12:23:49.542Z,98843.56
2023-02-15T12:26:26.208Z,98876.00
2023-02-15T12:28:55.652Z,98872.63
2023-02-15T12:31:29.034Z,98864.56
2023-02-15T12:34:02.956Z,98859.41
2023-02-15T12:36:34.396Z,98865.53
2023-02-15T12:39:20.806Z,98863.88
2023-02-15T12:42:01.058Z,98822.97
2023-02-15T12:44:31.418Z,98745.56
2023-02-15T12:47:02.162Z,98874.53
2023-02-15T12:49:32.842Z,98863.31
2023-02-15T12:52:02.855Z,98857.25
2023-02-15T12:54:37.411Z,98858.16
2023-02-15T12:57:26.528Z,98812.88
2023-02-15T12:59:57.006Z,98840.69
2023-02-15T13:02:29.296Z,98864.19
2023-02-15T13:05:06.427Z,98860.72
2023-02-15T13:07:35.179Z,98864.28
2023-02-15T13:10:03.710Z,98738.91
2023-02-15T13:12:34.762Z,98844.25
2023-02-15T13:15:04.282Z,98838.97
2023-02-15T13:17:35.248Z,98776.28
2023-02-15T13:20:10.891Z,98833.72
2023-02-15T13:22:44.128Z,98832.81
2023-02-15T13:25:17.064Z,98719.59
2023-02-15T13:27:47.034Z,98821.25
2023-02-15T13:30:28.153Z,98820.25
2023-02-15T13:33:00.853Z,98801.03
2023-02-15T13:35:39.402Z,98773.25
2023-02-15T13:38:19.425Z,98811.41
2023-02-15T13:40:54.760Z,98811.34
2023-02-15T13:43:38.003Z,98811.50
2023-02-15T13:46:20.425Z,98796.81
2023-02-15T13:49:00.621Z,98808.91
2023-02-15T13:51:39.144Z,98799.25
2023-02-15T13:54:38.934Z,98799.25
2023-02-15T13:57:26.633Z,98800.09
2023-02-15T14:00:05.246Z,98810.00
2023-02-15T14:03:07.502Z,98788.63
2023-02-15T14:05:56.422Z,98806.81
2023-02-15T14:08:41.589Z,98789.81
2023-02-15T14:11:18.918Z,98796.22
2023-02-15T14:14:13.563Z,98784.34
2023-02-15T14:17:05.786Z,98783.66
2023-02-15T14:19:40.796Z,98785.84
2023-02-15T14:22:18.172Z,98797.75
2023-02-15T14:25:01.109Z,98793.31
2023-02-15T14:27:45.653Z,98794.38
2023-02-15T14:30:20.453Z,98792.13
2023-02-15T14:32:53.442Z,98787.25
2023-02-15T14:35:24.269Z,98701.75
2023-02-15T14:37:57.592Z,98789.25
2023-02-15T14:40:53.792Z,98794.28
2023-02-15T14:43:31.095Z,98789.06
2023-02-15T14:46:09.386Z,98785.41
2023-02-15T14:48:44.175Z,98785.38
2023-02-15T14:51:13.528Z,98748.63
2023-02-15T14:53:43.267Z,98784.84
2023-02-15T14:56:27.748Z,98787.56
2023-02-15T14:59:18.577Z,98697.88
2023-02-15T15:01:59.088Z,98792.91
2023-02-15T15:04:35.159Z,98791.13
2023-02-15T15:07:10.868Z,98793.72
2023-02-15T15:09:41.642Z,98786.66
2023-02-15T15:12:39.251Z,98787.44
2023-02-15T15:15:08.860Z,98773.41
2023-02-15T15:17:56.665Z,98788.13
2023-02-15T15:20:55.002Z,98793.16
2023-02-15T15:23:46.493Z,98789.56
2023-02-15T15:26:30.496Z,98786.84
2023-02-15T15:29:04.675Z,98786.75
2023-02-15T15:31:51.654Z,98786.59
2023-02-15T15:35:02.428Z,98789.84
2023-02-15T15:38:17.863Z,98791.31
2023-02-15T15:41:18.762Z,98790.31
2023-02-15T15:44:35.198Z,98788.38
2023-02-15T15:47:18.984Z,98777.03
2023-02-15T15:49:47.091Z,98772.63
2023-02-15T15:52:17.655Z,98768.28
2023-02-15T15:54:48.692Z,98771.66
2023-02-15T15:57:21.331Z,98652.31
2023-02-15T15:59:51.969Z,98759.38
2023-02-15T16:02:20.370Z,98759.22
2023-02-15T16:04:49.468Z,98770.63
2023-02-15T16:07:28.490Z,98767.72
2023-02-15T16:09:57.948Z,98766.78
2023-02-15T16:12:27.391Z,98623.50
2023-02-15T16:14:58.226Z,98772.25
2023-02-15T16:17:29.165Z,98737.88
2023-02-15T16:20:02.476Z,98769.88
2023-02-15T16:22:31.042Z,98773.44
2023-02-15T16:25:37.229Z,98770.97
2023-02-15T16:28:10.466Z,98770.88
2023-02-15T16:30:43.232Z,98771.63
2023-02-15T16:33:13.172Z,98723.22
2023-02-15T16:35:43.279Z,98774.50
2023-02-15T16:38:12.715Z,98769.31
2023-02-15T16:40:52.721Z,98746.41
2023-02-15T16:43:27.025Z,98713.22
2023-02-15T16:46:05.609Z,98780.06
2023-02-15T16:48:36.501Z,98774.78
2023-02-15T16:51:05.267Z,98643.69
2023-02-15T16:53:33.688Z,98771.31
2023-02-15T16:56:04.958Z,98780.69
2023-02-15T16:58:39.450Z,98762.28
2023-02-15T17:01:12.389Z,98629.63
2023-02-15T17:03:41.944Z,98655.75
2023-02-15T17:06:22.477Z,98782.84
2023-02-15T17:08:50.731Z,98780.25
2023-02-15T17:11:20.941Z,98778.44
2023-02-15T17:14:16.262Z,98793.22
2023-02-15T17:16:50.463Z,98777.56
2023-02-15T17:19:23.833Z,98789.19
2023-02-15T17:21:54.904Z,98674.75
2023-02-15T17:24:31.713Z,98794.50
2023-02-15T17:27:02.971Z,98726.56
2023-02-15T17:29:36.364Z,98790.25
2023-02-15T17:32:07.274Z,98697.56
2023-02-15T17:35:01.113Z,98791.94
2023-02-15T17:37:31.716Z,98779.53
2023-02-15T17:40:01.219Z,98794.56
2023-02-15T17:42:29.301Z,98797.03
2023-02-15T17:44:57.467Z,98798.72
2023-02-15T17:47:30.230Z,98758.66
2023-02-15T17:49:58.415Z,98764.66
2023-02-15T17:52:32.574Z,98780.31
2023-02-15T17:55:18.037Z,98796.84
2023-02-15T17:57:46.238Z,98787.34
2023-02-15T18:00:33.797Z,98723.56
2023-02-15T18:03:21.024Z,98790.72
2023-02-15T18:06:06.411Z,98789.00
2023-02-15T18:08:52.271Z,98783.19
2023-02-15T18:11:36.261Z,98776.31
2023-02-15T18:14:04.922Z,98778.78
2023-02-15T18:16:35.976Z,98781.97
2023-02-15T18:19:06.656Z,98784.63
2023-02-15T18:21:35.163Z,98786.22
2023-02-15T18:24:03.330Z,98794.00
2023-02-15T18:26:31.666Z,98670.63
2023-02-15T18:28:59.895Z,98786.97
2023-02-15T18:31:28.270Z,98784.97
2023-02-15T18:33:59.742Z,98788.28
2023-02-15T18:36:32.846Z,98779.59
2023-02-15T18:39:07.789Z,98781.25
2023-02-15T18:41:37.136Z,98781.53
2023-02-15T18:44:05.469Z,98787.66
2023-02-15T18:46:33.600Z,98790.84
2023-02-15T18:49:01.654Z,98789.78
2023-02-15T18:51:35.626Z,98793.16
2023-02-15T18:54:03.973Z,98755.56
2023-02-15T18:56:33.017Z,98784.34
2023-02-15T18:59:01.169Z,98782.03
2023-02-15T19:01:29.726Z,98783.78
2023-02-15T19:03:57.854Z,98785.31
2023-02-15T19:06:26.050Z,98784.84
2023-02-15T19:08:55.820Z,98784.44
2023-02-15T19:11:27.263Z,98576.56
2023-02-15T19:13:56.612Z,98798.19
2023-02-15T19:16:31.492Z,98790.25
2023-02-15T19:19:00.167Z,98790.31
2023-02-15T19:21:29.859Z,98788.69
2023-02-15T19:24:03.277Z,98769.41
2023-02-15T19:26:44.336Z,98783.50
2023-02-15T19:29:15.595Z,98761.97
2023-02-15T19:31:43.972Z,98784.47
2023-02-15T19:34:16.131Z,98722.19
2023-02-15T19:36:45.713Z,98803.19
2023-02-15T19:39:25.872Z,98778.56
2023-02-15T19:41:54.508Z,98759.47
2023-02-15T19:44:22.774Z,98741.06
2023-02-15T19:46:50.940Z,98782.16
2023-02-15T19:49:19.154Z,98787.72
2023-02-15T19:51:47.751Z,98778.78
2023-02-15T19:54:30.947Z,98782.00
2023-02-15T19:56:59.393Z,98761.06
2023-02-15T19:59:29.852Z,98781.44
2023-02-15T20:01:58.465Z,98780.63
2023-02-15T20:04:27.519Z,98749.88
2023-02-15T20:06:58.416Z,98690.13
2023-02-15T20:09:31.458Z,98695.00
2023-02-15T20:11:59.658Z,98780.03
2023-02-15T20:14:28.202Z,98778.31
2023-02-15T20:16:56.461Z,98618.44
2023-02-15T20:19:24.667Z,98784.41
2023-02-15T20:21:55.047Z,98752.91
2023-02-15T20:24:25.924Z,98767.91
2023-02-15T20:26:55.556Z,98769.00
2023-02-15T20:29:23.984Z,98747.22
2023-02-15T20:31:55.170Z,98754.66
2023-02-15T20:34:23.551Z,98710.84
2023-02-15T20:36:52.684Z,98772.75
2023-02-15T20:39:21.225Z,98752.47
2023-02-15T20:41:49.392Z,98780.38
2023-02-15T20:44:24.857Z,98752.25
2023-02-15T20:46:56.622Z,98767.56
2023-02-15T20:49:25.534Z,98742.25
2023-02-15T20:51:55.567Z,98739.03
2023-02-15T20:54:25.829Z,98740.41
2023-02-15T20:56:54.461Z,98691.59
2023-02-15T20:59:27.304Z,98755.03
2023-02-15T21:01:59.868Z,98751.63
2023-02-15T21:04:31.605Z,98749.72
2023-02-15T21:07:00.192Z,98724.34
2023-02-15T21:09:28.936Z,98720.09
2023-02-15T21:12:02.767Z,98740.03
2023-02-15T21:14:32.396Z,98733.22
2023-02-15T21:17:00.812Z,98733.28
2023-02-15T21:19:28.986Z,98710.50
2023-02-15T21:21:58.076Z,98731.47
2023-02-15T21:24:29.310Z,98734.00
2023-02-15T21:26:59.694Z,98721.97
2023-02-15T21:29:29.865Z,98703.56
2023-02-15T21:32:00.645Z,98732.16
2023-02-15T21:34:28.896Z,98721.81
2023-02-15T21:36:57.410Z,98725.28
2023-02-15T21:39:27.450Z,98710.25
2023-02-15T21:42:14.411Z,98723.25
2023-02-15T21:45:00.198Z,98715.31
2023-02-15T21:47:48.925Z,98730.56
2023-02-15T21:50:35.851Z,98699.59
2023-02-15T21:53:05.282Z,98717.16
2023-02-15T21:55:33.675Z,98719.44
2023-02-15T21:58:01.953Z,98704.47
2023-02-15T22:00:31.214Z,98716.69
2023-02-15T22:03:02.180Z,98694.22
2023-02-15T22:05:32.664Z,98716.81
2023-02-15T22:08:01.312Z,98713.41
2023-02-15T22:10:32.506Z,98732.97
2023-02-15T22:13:02.193Z,98714.53
2023-02-15T22:15:35.436Z,98707.28
2023-02-15T22:18:06.176Z,98709.56
2023-02-15T22:20:34.512Z,98704.38
2023-02-15T22:23:02.682Z,98710.59
2023-02-15T22:25:30.856Z,98702.84
2023-02-15T22:27:59.107Z,98705.47
2023-02-15T22:30:30.290Z,98695.69
2023-02-15T22:33:00.001Z,98685.75
2023-02-15T22:35:31.317Z,98713.13
2023-02-15T22:37:59.893Z,98704.03
2023-02-15T22:40:31.462Z,98685.47
2023-02-15T22:43:03.817Z,98679.25
2023-02-15T22:45:33.850Z,98714.22
2023-02-15T22:48:02.648Z,98572.88
2023-02-15T22:50:35.033Z,98707.50
2023-02-15T22:53:05.193Z,98711.22
2023-02-15T22:55:37.453Z,98719.50
2023-02-15T22:58:06.374Z,98726.31
2023-02-15T23:00:39.844Z,98721.88
2023-02-15T23:03:16.885Z,98714.94
2023-02-15T23:05:47.149Z,98716.91
2023-02-15T23:08:15.951Z,98703.22
2023-02-15T23:10:46.123Z,98679.66
2023-02-15T23:13:25.445Z,98549.03
2023-02-15T23:15:57.866Z,98520.75
2023-02-15T23:18:29.040Z,98704.25
2023-02-15T23:21:00.626Z,98703.97
2023-02-15T23:23:34.735Z,98697.34
2023-02-15T23:26:04.750Z,98562.13
2023-02-15T23:28:36.866Z,98708.69
2023-02-15T23:31:15.708Z,98701.69
2023-02-15T23:33:44.491Z,98683.63
2023-02-15T23:36:25.977Z,98699.41
2023-02-15T23:38:54.758Z,98700.38
2023-02-15T23:41:25.808Z,98694.38
2023-02-15T23:43:57.995Z,98687.41
2023-02-15T23:46:29.347Z,98690.03
2023-02-15T23:48:58.137Z,98680.78
2023-02-15T23:51:33.217Z,98688.25
2023-02-15T23:54:01.368Z,98688.88
2023-02-15T23:56:29.590Z,98687.94
2023-02-15T23:58:57.814Z,98688.91
